Hauptseite
METAR-TAF:

METAR-TAF

Flughäfen :

Donegal, Irland

Flughafen Donegal

Breite: 55-02-39N, Länge: 8-20-28W, Höhe: 9 m

Beobachtung

Neuester Wetterbericht von vor 14 Stunden und 32 Minuten, um 19:30 UTC
Wind 6 kt aus Süd/Südost
Temperatur 3°C
Luftfeuchtigkeit 70%
Luftdruck 1022 hPa
Sichtweite 10 km oder mehr
Durchbrochene Bewölkung in der Höhe von 2900 ft

METAR: EIDL 241930Z 16006KT 9999 BKN029 03/M02 Q1022

Zeit: 10:02 (10:02 UTC)

Prognose

Neuester Wetterbericht von vor 2 Stunden und 2 Minuten, um 08:00 UTC
Gültige Prognose vom 25 um 09 UTC bis 25 um 18 UTC
Wind 12 kt aus Süd/Südost
Sichtweite 10 km oder mehr
keine Wolken unter 1500 m und keine Kumulonimbus oder Gewitterwolken
Zeitweise
vom 25 um 09 UTC bis 25 um 15 UTC
Wind 15 kt aus Süd/Südost, Böen bis zu 26 kt

TAF: EIDL 250800Z 2509/2518 16012KT CAVOK TEMPO 2509/2515 16015G26KT

Wetterbeobachtungen und Prognosen von mehr als 4000 Flughäfen (METAR und TAF Bericht).

Die verfügbaren Stationen werden durch gelbe und rote Markierungen auf der Karte dargestellt.

Führen Sie die Maus auf sie, um den Namen der Station zu sehen.

Darauf klicken, um die Beobachtung von Wetterbeobachtungen und Prognosen zu sehen.

Um die Karte zu ändern : klicken Sie auf den grünen Tasten mit einem schwarzen Kreuz Zum Vergrößern, auf den grünen Button mit einem Gedankenstrich zu verkleinern, oder auf die grünen Pfeile für benachbarte Karten.


METAR-TAF: